Date,TemperatureHighF,TemperatureAvgF,TemperatureLowF,DewpointHighF,DewpointAvgF,DewpointLowF,HumidityHigh,HumidityAvg,HumidityLow,PressureMaxIn,PressureMinIn,WindSpeedMaxMPH,WindSpeedAvgMPH,GustSpeedMaxMPH,PrecipitationSumIn
2013-1-1,50.9,50.9,50.9,44.3,44.3,44.3,78,78,78,30.08,30.08,6,6,6,0.05
2013-1-7,36.8,36.7,36.6,32.7,32.3,31.9,85,84,83,30.06,30.05,8,6,16,0.00
2013-1-8,37.4,35.4,33.9,32.6,28.6,24.0,92,76,60,30.19,30.06,12,3,21,0.11
2013-1-9,46.9,40.3,33.8,33.4,29.5,23.8,80,66,48,30.22,30.14,21,1,16,0.00
2013-1-10,52.4,45.4,34.9,46.0,34.6,26.3,91,68,39,30.17,29.91,12,1,12,0.05
2013-1-11,61.9,55.5,49.5,54.4,50.0,46.2,93,82,61,29.91,29.78,16,2,16,0.09
2013-1-12,59.8,52.2,44.5,49.8,44.5,41.6,94,76,60,30.01,29.78,13,1,13,0.01
2013-1-13,57.2,49.8,42.7,46.2,42.6,39.5,93,77,54,30.20,30.01,12,2,12,0.01
2013-1-14,59.2,51.9,48.5,50.0,45.7,43.1,85,79,67,30.26,30.19,13,4,13,0.00
2013-1-15,61.3,55.5,46.3,52.1,48.6,44.1,95,78,61,30.22,29.89,15,3,27,0.01
2013-1-16,59.6,53.9,46.0,52.8,47.1,41.1,94,78,67,29.89,29.62,32,8,32,1.38
2013-1-17,61.2,55.5,45.6,51.6,47.9,41.5,88,76,60,29.76,29.55,16,5,32,0.07
2013-1-18,57.6,52.5,46.7,51.3,46.6,39.6,92,81,65,29.55,29.42,32,5,26,0.28
2013-1-19,51.9,48.7,46.9,40.3,39.8,39.6,76,72,63,29.81,29.50,12,9,12,0.01
2013-1-20,51.7,51.7,51.7,40.3,40.3,40.3,65,65,65,29.81,29.81,4,4,4,0.01
2013-1-21,51.7,51.7,51.7,40.3,40.3,40.3,65,65,65,29.81,29.81,4,4,4,0.01
2013-1-22,51.7,51.7,51.7,40.3,40.3,40.3,65,65,65,29.81,29.81,4,4,4,0.01
2013-1-23,51.7,51.7,51.7,40.3,40.3,40.3,65,65,65,29.81,29.81,4,4,4,0.01
2013-1-24,51.7,51.7,51.7,40.3,40.3,40.3,65,65,65,29.81,29.81,4,4,4,0.01
2013-1-25,51.7,51.7,51.7,40.3,40.3,40.3,65,65,65,29.81,29.81,4,4,4,0.01
2013-1-26,51.7,51.7,51.7,40.3,40.3,40.3,65,65,65,29.81,29.81,4,4,4,0.01
2013-1-27,51.7,51.7,51.7,40.3,40.3,40.3,65,65,65,29.81,29.81,4,4,4,0.01
2013-1-28,51.7,51.7,51.7,40.3,40.3,40.3,65,65,65,29.81,29.81,4,4,4,0.01
2013-1-29,51.7,51.7,51.7,40.3,40.3,40.3,65,65,65,29.81,29.81,4,4,4,0.01
2013-1-30,51.7,51.7,51.7,40.3,40.3,40.3,65,65,65,29.81,29.81,4,4,4,0.01
2013-1-31,51.7,51.7,51.7,40.3,40.3,40.3,65,65,65,29.81,29.81,4,4,4,0.01
2013-2-1,51.7,51.7,51.7,40.3,40.3,40.3,65,65,65,29.81,29.81,4,4,4,0.01
2013-2-2,51.7,51.7,51.7,40.3,40.3,40.3,65,65,65,29.81,29.81,4,4,4,0.01
2013-2-3,51.7,51.7,51.7,40.3,40.3,40.3,65,65,65,29.81,29.81,4,4,4,0.01
2013-2-4,51.7,51.7,51.7,40.3,40.3,40.3,65,65,65,29.81,29.81,4,4,4,0.01
2013-2-5,51.7,51.7,51.7,40.3,40.3,40.3,65,65,65,29.81,29.81,4,4,4,0.01
2013-2-6,51.7,51.7,51.7,40.3,40.3,40.3,65,65,65,29.81,29.81,4,4,4,0.01
2013-2-7,51.7,51.7,51.7,40.3,40.3,40.3,65,65,65,29.81,29.81,4,4,4,0.01
2013-2-8,51.7,51.7,51.7,40.3,40.3,40.3,65,65,65,29.81,29.81,4,4,4,0.01
2013-2-9,51.7,51.7,51.7,40.3,40.3,40.3,65,65,65,29.81,29.81,4,4,4,0.01
2013-2-10,51.7,51.7,51.7,40.3,40.3,40.3,65,65,65,29.81,29.81,4,4,4,0.01
2013-2-11,51.7,51.7,51.7,40.3,40.3,40.3,65,65,65,29.81,29.81,4,4,4,0.01
2013-2-12,51.7,51.7,51.7,40.3,40.3,40.3,65,65,65,29.81,29.81,4,4,4,0.01
2013-2-13,51.7,51.7,51.7,40.3,40.3,40.3,65,65,65,29.81,29.81,4,4,4,0.01
2013-2-14,51.7,51.7,51.7,40.3,40.3,40.3,65,65,65,29.81,29.81,4,4,4,0.01
2013-2-15,51.7,51.7,51.7,40.3,40.3,40.3,65,65,65,29.81,29.81,4,4,4,0.01
2013-2-16,51.7,51.7,51.7,40.3,40.3,40.3,65,65,65,29.81,29.81,4,4,4,0.01
2013-2-17,51.7,51.7,51.7,40.3,40.3,40.3,65,65,65,29.81,29.81,4,4,4,0.01
2013-2-18,51.7,51.7,51.7,40.3,40.3,40.3,65,65,65,29.81,29.81,4,4,4,0.01
2013-2-19,51.7,51.7,51.7,40.3,40.3,40.3,65,65,65,29.81,29.81,4,4,4,0.01
2013-2-20,51.7,51.7,51.7,40.3,40.3,40.3,65,65,65,29.81,29.81,4,4,4,0.01
2013-2-21,51.7,51.7,51.7,40.3,40.3,40.3,65,65,65,29.81,29.81,4,4,4,0.01
2013-2-22,51.7,51.7,51.7,40.3,40.3,40.3,65,65,65,29.81,29.81,4,4,4,0.01
2013-2-23,51.7,51.7,51.7,40.3,40.3,40.3,65,65,65,29.81,29.81,4,4,4,0.01
2013-2-24,51.7,51.7,51.7,40.3,40.3,40.3,65,65,65,29.81,29.81,4,4,4,0.01
2013-4-26,51.7,51.7,51.7,40.3,40.3,40.3,65,65,65,29.81,29.81,4,4,4,0.00
2013-4-27,51.7,51.7,51.7,40.3,40.3,40.3,65,65,65,29.81,29.81,4,4,4,0.01
2013-4-28,51.7,51.7,51.7,40.3,40.3,40.3,65,65,65,29.81,29.81,4,4,4,0.00
2013-4-29,51.7,51.7,51.7,40.3,40.3,40.3,65,65,65,29.81,29.81,4,4,4,0.01
2013-5-1,51.7,51.7,51.7,40.3,40.3,40.3,65,65,65,29.81,29.81,4,4,4,0.00
2013-5-2,51.7,51.7,51.7,40.3,40.3,40.3,65,65,65,29.81,29.81,4,4,4,0.00
2013-5-3,51.7,51.7,51.7,40.3,40.3,40.3,65,65,65,29.81,29.81,4,4,4,0.01
2013-5-4,51.7,51.7,51.7,40.3,40.3,40.3,65,65,65,29.81,29.81,4,4,4,0.01
2013-5-5,51.7,51.7,51.7,40.3,40.3,40.3,65,65,65,29.81,29.81,4,4,4,0.01
2013-5-6,51.7,51.7,51.7,40.3,40.3,40.3,65,65,65,29.81,29.81,4,4,4,0.00
2013-5-8,51.7,51.7,51.7,40.3,40.3,40.3,65,65,65,29.81,29.81,4,4,4,0.00
2013-5-11,51.7,51.7,51.7,40.3,40.3,40.3,65,65,65,29.81,29.81,4,4,4,0.00
2013-5-12,51.7,51.7,51.7,40.3,40.3,40.3,65,65,65,29.81,29.81,4,4,4,0.00
2013-5-13,51.7,51.7,51.7,40.3,40.3,40.3,65,65,65,29.81,29.81,4,4,4,0.00
2013-5-14,51.7,51.7,51.7,40.3,40.3,40.3,65,65,65,29.81,29.81,4,4,4,0.00
2013-5-16,51.7,51.7,51.7,40.3,40.3,40.3,65,65,65,29.81,29.81,4,4,4,0.01
2013-5-17,51.7,51.7,51.7,40.3,40.3,40.3,65,65,65,29.81,29.81,4,4,4,0.00
2013-5-20,51.7,51.7,51.7,40.3,40.3,40.3,65,65,65,29.81,29.81,4,4,4,0.01
2013-5-21,51.7,51.7,51.7,40.3,40.3,40.3,65,65,65,29.81,29.81,4,4,4,0.00
2013-5-22,51.7,51.7,51.7,40.3,40.3,40.3,65,65,65,29.81,29.81,4,4,4,0.00
2013-5-23,51.7,51.7,51.7,40.3,40.3,40.3,65,65,65,29.81,29.81,4,4,4,0.01
2013-5-24,78.5,74.4,51.7,55.0,52.0,40.3,65,46,41,29.89,29.79,17,7,17,0.01
2013-5-25,79.3,70.9,64.1,55.8,51.6,48.2,60,51,38,29.92,29.85,20,5,20,0.00
2013-5-26,84.2,74.1,64.7,54.2,50.9,44.1,64,46,28,29.92,29.81,16,5,16,0.00
2013-5-27,81.2,71.9,63.6,51.7,43.2,35.4,54,37,22,29.93,29.86,16,4,16,0.00
2013-5-28,72.3,65.4,61.3,53.4,51.2,47.8,74,60,48,29.92,29.89,5,1,5,0.00
2013-5-29,85.9,76.0,69.7,60.8,54.7,41.3,66,48,32,29.89,29.54,26,7,26,0.00
2013-5-30,86.5,80.4,74.8,59.3,51.2,45.2,49,37,25,29.70,29.61,18,7,18,0.00
2013-5-31,81.4,77.9,70.8,52.5,48.1,43.3,45,35,30,29.72,29.65,18,6,18,0.00
2013-6-2,77.4,70.9,62.0,55.8,51.0,45.3,77,50,36,29.81,29.66,13,3,19,0.06
2013-6-3,80.7,72.8,63.0,54.6,51.4,46.8,68,48,32,29.84,29.80,19,4,15,0.00
2013-6-4,81.5,73.9,65.2,56.9,53.0,46.8,73,49,30,29.87,29.78,9,2,19,0.00
2013-6-5,82.0,75.1,66.1,56.0,51.9,44.8,62,46,29,29.91,29.83,19,3,13,0.00
2013-6-6,82.8,77.1,72.6,61.5,57.5,52.7,66,51,37,29.96,29.89,15,6,15,0.00
2013-6-7,83.3,77.3,71.2,61.3,56.1,51.8,69,49,36,29.96,29.81,12,5,12,0.01
2013-6-8,82.7,74.5,67.1,62.5,58.3,53.3,75,58,38,29.85,29.76,16,4,16,0.01
2013-6-9,83.4,74.9,65.5,60.4,58.5,55.1,81,58,40,29.89,29.83,15,3,15,0.00
2013-6-10,88.5,83.3,74.9,62.4,59.5,53.9,60,45,38,29.90,29.79,12,4,12,0.00
2013-6-11,86.5,77.3,71.3,61.5,55.8,52.3,64,48,34,29.65,29.58,16,4,17,0.01
2013-6-12,85.4,73.7,61.1,63.9,56.0,51.7,85,56,34,29.72,29.59,23,3,23,0.45
2013-6-13,74.8,68.7,63.6,60.2,58.9,57.6,86,72,57,29.78,29.71,20,3,20,0.01
2013-6-14,76.9,73.2,64.5,63.0,60.4,58.4,83,65,54,29.89,29.81,16,7,16,0.04
2013-6-15,84.9,80.4,70.6,63.8,60.7,55.6,67,52,39,29.90,29.85,13,3,13,0.04
2013-6-16,91.5,83.8,72.3,68.4,61.6,53.9,78,50,31,29.92,29.89,12,2,12,0.04
2013-6-17,90.5,85.8,80.7,61.8,58.3,54.4,47,39,32,29.94,29.90,18,6,18,0.04
2013-6-18,88.3,83.0,78.4,61.3,59.0,55.9,51,45,34,29.93,29.88,23,8,23,0.00
2013-6-19,88.5,83.0,77.5,59.8,57.2,54.6,51,42,32,29.90,29.83,27,8,27,0.00
2013-6-20,89.8,83.8,79.1,60.5,55.4,51.3,52,38,32,29.92,29.80,31,13,31,0.00
2013-6-21,85.7,80.7,75.5,59.9,56.2,52.3,51,43,37,29.92,29.86,26,10,26,0.00
2013-6-22,90.4,83.5,74.8,56.1,50.9,41.9,50,34,20,29.87,29.80,22,8,22,0.00
2013-6-23,94.4,90.2,85.6,60.8,58.9,55.6,38,35,32,29.80,29.76,17,7,17,0.00
2013-6-24,98.5,91.1,81.9,61.4,56.7,51.2,45,32,24,29.75,29.70,9,4,11,0.00
2013-6-25,94.9,85.9,77.0,60.2,58.4,54.7,54,41,27,29.75,29.70,14,4,14,0.00
2013-6-26,89.8,83.6,79.1,69.4,66.3,61.0,63,56,49,29.83,29.75,19,6,19,0.00
2013-6-27,88.3,82.5,75.7,66.3,64.0,59.7,72,55,41,29.87,29.81,17,4,17,0.00
2013-6-28,86.1,78.6,73.2,67.7,63.6,59.9,74,61,43,29.88,29.83,16,4,16,0.00
2013-6-29,89.0,84.3,75.7,65.6,57.9,48.2,71,41,34,29.88,29.70,14,5,14,0.00
2013-6-30,84.6,78.8,73.3,58.9,54.5,49.3,60,44,32,29.83,29.72,15,5,15,0.00
2013-7-1,85.1,76.3,68.2,62.3,54.4,49.1,68,49,30,29.97,29.83,16,3,16,0.00
2013-7-2,85.9,76.8,68.8,61.9,57.1,50.8,76,52,31,29.98,29.91,16,4,16,0.00
2013-7-3,86.2,77.4,70.6,58.4,54.6,51.1,64,46,36,29.94,29.84,20,4,20,0.00
2013-7-4,86.2,73.2,68.6,57.1,54.2,51.6,60,52,36,29.88,29.84,15,2,13,0.00
2013-7-5,71.9,71.3,70.7,54.2,52.9,52.0,55,52,50,29.86,29.84,0,0,4,0.00
2013-7-6,81.0,79.5,78.4,60.4,59.8,59.1,53,51,49,29.84,29.80,23,6,23,0.00
2013-7-7,85.5,80.2,74.8,63.7,61.3,57.9,65,53,44,29.91,29.80,25,8,25,0.00
2013-7-8,88.6,81.9,75.6,61.0,57.7,54.8,55,44,33,29.94,29.89,20,8,20,0.00
2013-7-9,89.0,86.6,83.8,61.8,59.9,57.6,45,41,36,29.89,29.79,20,10,20,0.00
2013-7-10,87.9,83.4,78.5,62.6,58.4,52.8,55,43,37,29.77,29.69,30,11,30,0.00
2013-7-11,84.3,78.4,73.7,64.5,58.1,52.7,60,50,41,29.79,29.71,15,2,15,0.00
2013-7-12,92.3,82.4,73.6,65.3,60.8,55.6,69,49,32,29.87,29.78,16,4,16,0.00
2013-7-13,88.5,82.1,76.6,64.0,61.3,56.1,59,50,40,29.88,29.82,17,6,17,0.00
2013-7-14,81.3,78.1,75.5,60.5,58.3,55.5,55,51,46,29.87,29.84,14,3,14,0.00
2013-7-15,81.2,81.2,81.2,60.2,60.2,60.2,49,49,49,29.87,29.87,14,14,14,0.00
2013-7-16,86.5,81.0,74.9,60.2,57.0,53.2,55,44,36,29.89,29.82,20,4,20,0.00
2013-7-17,79.5,75.0,71.0,62.3,59.2,54.1,71,58,46,29.94,29.88,24,8,24,0.00
2013-7-18,83.0,78.0,72.7,60.3,55.4,50.6,63,46,33,29.97,29.91,27,10,27,0.00
2013-7-19,84.1,78.1,73.3,57.2,53.5,48.4,53,43,33,29.96,29.84,24,6,24,0.00
2013-7-20,86.5,79.9,70.6,59.0,54.2,46.4,61,42,28,29.84,29.77,23,6,21,0.00
2013-7-21,90.6,82.5,72.2,57.9,55.2,50.4,54,40,31,29.84,29.77,21,6,21,0.00
2013-7-22,82.9,77.3,73.4,65.0,59.3,52.4,74,55,39,29.86,29.80,25,7,25,0.00
2013-7-23,85.5,77.9,71.6,61.8,53.6,45.2,62,45,27,29.85,29.80,20,6,21,0.00
2013-7-24,91.5,82.9,69.9,54.5,51.0,47.7,53,34,23,29.87,29.82,22,5,22,0.00
2013-7-25,96.8,84.6,72.1,63.2,55.0,47.9,56,38,21,29.89,29.81,13,2,19,0.00
2013-7-26,94.2,85.5,74.4,63.1,56.7,51.4,61,39,26,29.85,29.77,23,3,23,0.00
2013-7-27,88.2,81.4,78.3,59.3,55.4,52.4,48,41,31,29.83,29.79,14,2,14,0.00
2013-7-28,89.8,84.0,78.1,59.9,56.8,54.2,53,40,33,29.96,29.86,12,4,19,0.00
2013-7-29,92.0,85.5,78.0,58.4,55.0,49.8,50,36,24,29.96,29.88,21,8,21,0.00
2013-7-30,99.2,88.5,76.0,66.4,60.2,52.1,55,40,28,29.88,29.70,15,2,15,0.00
2013-7-31,93.5,86.4,79.3,66.2,62.9,57.6,62,46,36,29.71,29.67,21,5,21,0.00
2013-8-1,86.1,84.2,80.6,66.9,60.2,56.9,63,45,40,29.86,29.76,24,13,24,0.00
2013-8-2,84.2,83.8,83.2,61.5,60.6,59.6,48,46,45,29.92,29.91,24,17,24,0.00
2013-8-3,82.4,81.8,81.1,56.0,54.8,52.7,41,40,36,29.89,29.86,6,2,17,0.00
2013-8-4,82.0,81.4,80.0,56.8,56.5,56.1,45,43,42,29.86,29.84,6,4,14,0.00
2013-8-5,84.5,84.3,84.2,50.3,50.0,49.3,31,31,30,29.87,29.87,13,11,15,0.00
2013-8-6,85.0,82.5,79.5,58.3,53.9,48.1,48,38,29,29.87,29.83,29,16,29,0.00
2013-8-7,86.2,79.4,77.2,57.2,54.9,51.8,47,43,31,29.87,29.82,26,8,26,0.00
2013-8-8,90.0,85.6,81.9,57.6,53.6,48.8,43,34,25,29.92,29.87,26,10,26,0.00
2013-8-9,90.5,83.7,78.3,62.5,56.5,51.5,52,40,27,29.89,29.76,22,9,22,0.00
2013-8-10,93.0,82.9,74.4,69.8,61.2,53.6,71,49,29,29.76,29.59,16,4,16,0.00
2013-8-11,87.3,81.6,77.0,68.1,58.6,49.3,72,48,28,29.74,29.62,22,8,22,0.00
2013-8-16,85.7,82.3,76.4,65.9,65.1,64.0,69,56,49,29.85,29.78,20,6,31,0.00
2013-8-17,85.9,81.0,75.2,65.6,63.7,61.4,71,56,46,29.87,29.80,16,6,26,0.00
2013-8-18,87.4,80.5,76.7,61.7,55.0,50.0,54,42,33,29.93,29.86,12,3,23,0.00
2013-8-19,89.3,81.9,76.5,61.6,57.1,52.7,48,43,33,29.90,29.86,20,7,20,0.00
2013-8-26,91.6,80.9,76.2,63.6,61.6,59.6,63,53,39,29.84,29.81,2,0,6,0.00
2013-8-27,77.0,76.6,76.1,62.7,62.0,61.4,63,61,59,29.82,29.81,0,0,3,0.00
2013-8-28,98.8,92.0,84.4,61.7,59.5,56.9,45,34,26,29.80,29.75,16,6,16,0.00
2013-8-29,95.2,85.5,78.7,66.2,62.4,58.8,61,47,30,29.85,29.78,15,4,15,0.00
2013-8-30,92.7,83.0,77.7,67.8,61.9,56.8,67,50,34,29.86,29.79,21,4,21,0.00
2013-8-31,84.0,78.2,74.0,64.2,57.0,51.9,63,49,39,29.95,29.86,12,3,18,0.00
2013-9-1,83.9,77.8,71.5,62.3,54.2,46.0,71,45,34,30.02,29.94,20,4,20,0.00
2013-9-2,86.0,77.6,70.9,54.6,48.3,40.1,51,36,26,30.02,29.95,16,5,16,0.00
2013-9-13,83.1,79.3,75.4,66.8,60.9,58.3,58,53,50,29.90,29.85,6,2,15,0.00
2013-9-14,85.4,76.0,69.2,61.2,56.7,46.1,75,53,26,29.97,29.89,10,2,18,0.00
2013-9-15,85.3,77.1,68.4,61.0,51.2,37.9,74,44,20,29.95,29.84,16,2,16,0.00
2013-9-16,80.9,74.9,68.3,64.6,59.6,53.1,76,60,43,29.85,29.59,14,3,14,0.00
2013-9-17,83.0,75.5,67.1,61.3,59.6,56.9,77,59,42,29.68,29.60,16,4,16,0.00
2013-9-26,70.4,69.5,68.4,62.1,61.7,61.2,78,76,74,29.84,29.82,3,0,5,0.00
2013-9-27,85.8,74.9,67.1,64.0,59.4,52.0,83,61,33,29.88,29.81,7,1,14,0.00
2013-9-28,86.4,76.0,65.2,63.0,59.6,50.7,84,59,30,29.90,29.84,6,1,12,0.00
2013-9-29,85.1,75.4,66.0,64.1,61.5,55.4,85,64,44,29.89,29.82,12,1,12,0.00
2013-9-30,87.9,76.0,66.8,68.1,63.3,57.5,88,67,41,29.85,29.60,14,2,14,0.00
2013-10-1,76.8,70.6,65.4,68.7,65.2,61.6,92,83,65,29.62,29.52,22,4,22,0.39
2013-11-6,59.8,59.5,59.2,57.7,57.4,56.9,93,92,92,29.65,29.61,4,0,4,0.80
2013-11-7,67.3,62.9,57.1,58.9,47.8,35.3,93,60,33,30.08,29.65,24,7,24,0.01
2013-11-8,75.0,64.3,54.3,53.7,49.9,40.9,85,62,37,30.13,30.06,9,2,9,0.00
2013-11-9,74.8,64.5,54.4,57.6,53.3,50.0,91,69,44,30.08,29.98,9,1,9,0.00
2013-11-10,71.6,64.1,55.5,58.5,56.5,53.1,92,78,60,29.98,29.85,9,2,8,0.00
2013-11-11,70.8,66.0,58.8,63.7,60.8,56.5,95,84,69,29.96,29.82,23,6,23,1.00
2013-11-12,68.5,64.9,61.4,62.9,61.5,58.0,94,89,80,30.04,29.94,20,4,20,0.06
2013-11-13,69.0,62.5,59.3,58.0,55.9,53.6,89,80,58,30.04,29.93,13,2,13,0.07
2013-11-14,62.9,59.7,57.2,55.1,54.0,52.7,87,82,72,29.94,29.83,14,4,14,0.01
2013-11-15,62.1,58.0,54.7,54.0,52.0,50.6,87,81,70,30.10,29.87,18,6,18,0.00
2013-11-16,58.9,56.7,54.4,52.6,49.4,44.8,85,77,69,30.16,30.08,21,7,23,0.00
2013-11-17,59.3,55.5,52.4,48.3,44.7,43.1,78,67,57,30.17,30.08,21,7,22,0.00
2013-11-18,60.4,55.4,50.5,47.4,45.4,43.3,79,69,59,30.13,30.07,20,5,20,0.00
2013-11-19,65.0,57.6,51.7,52.7,48.6,44.6,85,73,54,30.12,30.00,9,2,9,0.00
2013-11-20,68.8,62.6,57.4,63.0,58.1,52.9,94,85,76,30.00,29.84,18,4,18,0.51
2013-11-21,69.5,62.0,55.3,58.8,55.5,52.1,94,80,62,29.87,29.73,20,4,20,0.51
2013-11-22,66.9,59.0,54.6,55.9,53.0,50.2,95,82,56,29.78,29.68,9,1,13,0.18
2013-11-23,68.5,59.7,51.7,57.8,53.3,49.5,95,80,65,29.78,29.71,16,3,16,0.01
2013-11-24,65.4,58.7,55.2,59.1,54.5,50.0,94,86,72,29.76,29.65,27,3,27,1.17
2013-11-25,65.5,57.3,51.2,55.0,50.7,46.6,96,80,52,29.71,29.67,6,0,13,0.01
2013-11-26,65.4,55.7,51.7,55.2,51.1,47.7,93,85,58,29.76,29.67,8,0,13,0.02
2013-11-27,62.7,54.9,49.1,50.4,43.0,35.6,94,67,38,30.19,29.75,15,2,15,0.01
2013-11-28,56.2,50.7,45.4,44.5,40.8,37.0,86,70,49,30.29,30.19,12,3,12,0.00
2013-11-29,61.5,50.7,41.3,45.7,42.3,38.1,91,74,50,30.21,30.08,7,1,7,0.00
2013-11-30,55.0,52.8,48.6,50.9,46.5,41.6,89,79,68,30.13,30.02,18,5,18,0.09
2013-12-1,62.3,58.3,52.6,58.8,54.6,48.2,93,88,79,30.05,29.90,29,9,29,0.15
2013-12-2,62.1,59.0,56.2,58.2,55.9,51.7,94,90,83,30.08,29.93,20,6,20,1.04
2013-12-3,56.9,48.7,43.1,52.8,42.3,36.6,88,79,68,30.18,30.05,40,15,40,0.06
2013-12-4,48.3,44.7,42.3,39.7,37.6,34.0,89,77,65,30.14,30.05,25,11,25,0.13
2013-12-5,45.0,45.0,45.0,34.3,34.3,34.3,66,66,66,30.07,30.07,4,4,4,0.13
2013-12-6,45.0,45.0,45.0,34.3,34.3,34.3,66,66,66,30.07,30.07,4,4,4,0.13
2013-12-7,59.0,50.1,45.0,50.6,40.9,27.8,92,72,48,30.21,29.84,20,4,20,0.13
2013-12-8,51.3,46.2,40.7,35.3,28.4,23.1,80,51,34,30.40,30.21,20,4,20,0.00
2013-12-9,57.4,47.9,37.3,41.8,33.4,23.3,85,61,28,30.41,30.22,10,2,10,0.00
2013-12-10,57.2,49.7,43.9,44.5,39.4,31.6,85,69,46,30.36,30.09,30,7,30,0.04
2013-12-11,43.9,41.3,38.9,32.3,25.2,19.5,64,53,38,30.51,30.36,33,10,33,0.00
2013-12-12,49.6,43.5,36.3,37.4,30.2,19.0,74,61,31,30.45,30.22,16,4,16,0.00
2013-12-13,47.9,45.6,42.1,42.0,40.3,37.2,89,82,73,30.25,30.14,12,3,13,0.00
2013-12-14,56.3,44.6,39.0,45.5,40.1,36.5,94,85,65,30.36,30.19,2,0,2,0.01
2013-12-15,60.9,52.2,45.4,50.5,46.6,42.1,93,82,60,30.36,30.29,8,1,8,0.00
2013-12-16,53.7,50.7,48.0,48.7,44.8,38.6,93,81,68,30.39,30.29,25,5,25,0.00
2013-12-17,48.5,47.5,45.4,42.0,39.3,36.0,79,73,63,30.42,30.34,17,8,21,0.00
2013-12-18,48.4,45.9,43.3,41.3,39.2,37.2,82,77,70,30.40,30.22,21,5,21,0.00
2013-12-19,52.4,47.4,44.2,42.5,39.5,37.0,89,74,57,30.29,30.21,16,3,16,0.01
2013-12-20,57.3,47.3,38.8,42.3,39.0,35.3,89,74,49,30.46,30.28,12,1,12,0.00
2013-12-21,59.4,48.5,39.7,46.4,42.1,37.1,95,80,55,30.51,30.44,6,0,7,0.01
2013-12-22,59.9,49.1,39.9,42.3,38.4,32.1,89,69,36,30.50,30.38,15,2,15,0.01
2013-12-23,58.9,48.0,39.5,44.8,40.8,36.3,92,78,50,30.38,30.28,12,1,12,0.00
2013-12-24,53.0,49.9,46.4,47.5,44.6,42.2,88,82,73,30.31,30.17,15,2,21,0.01
2013-12-25,60.6,54.1,50.0,53.1,49.6,46.6,92,85,68,30.21,30.05,14,3,15,0.11
2013-12-26,61.9,56.5,51.9,54.2,51.6,48.9,92,84,71,30.06,29.85,18,3,18,0.02
2013-12-27,59.6,55.7,51.8,53.3,51.7,50.1,94,87,73,29.85,29.77,28,6,28,1.30
2013-12-28,57.5,53.5,51.3,50.6,49.0,43.9,94,85,69,29.92,29.79,18,5,18,0.06
2013-12-29,60.9,53.8,49.1,46.6,44.6,42.0,84,72,53,30.00,29.90,17,3,17,0.00
2013-12-30,63.0,52.8,44.6,46.0,42.9,40.7,92,70,47,30.11,30.05,7,1,15,0.00
2013-12-31,52.6,49.1,47.7,45.6,42.0,40.5,81,76,71,30.18,30.10,17,6,17,0.00
2014-1-1,48.8,47.6,46.2,45.4,42.4,40.0,89,82,73,30.17,30.07,7,2,15,0.26
2014-1-2,54.5,50.5,47.3,46.0,44.4,42.3,88,80,72,30.12,30.05,15,5,16,0.03